sensor_id;sensor_type;location;lat;lon;timestamp;P1;durP1;ratioP1;P2;durP2;ratioP2
69703;SDS011;56967;43.538;-5.646;2022-10-16T00:01:21;4.45;;;1.67;;
69703;SDS011;56967;43.538;-5.646;2022-10-16T00:03:49;5.13;;;1.50;;
69703;SDS011;56967;43.538;-5.646;2022-10-16T00:06:15;4.47;;;1.65;;
69703;SDS011;56967;43.538;-5.646;2022-10-16T00:08:42;5.00;;;1.60;;
69703;SDS011;56967;43.538;-5.646;2022-10-16T00:11:10;5.95;;;1.77;;
69703;SDS011;56967;43.538;-5.646;2022-10-16T00:13:38;5.18;;;1.67;;
69703;SDS011;56967;43.538;-5.646;2022-10-16T00:16:05;5.32;;;1.92;;
69703;SDS011;56967;43.538;-5.646;2022-10-16T00:18:32;6.30;;;2.20;;
69703;SDS011;56967;43.538;-5.646;2022-10-16T00:21:02;5.03;;;1.77;;
69703;SDS011;56967;43.538;-5.646;2022-10-16T00:23:29;5.93;;;1.95;;
69703;SDS011;56967;43.538;-5.646;2022-10-16T00:25:55;5.30;;;2.10;;
69703;SDS011;56967;43.538;-5.646;2022-10-16T00:28:22;5.40;;;2.10;;
69703;SDS011;56967;43.538;-5.646;2022-10-16T00:30:48;4.05;;;2.00;;
69703;SDS011;56967;43.538;-5.646;2022-10-16T00:33:13;3.25;;;1.80;;
69703;SDS011;56967;43.538;-5.646;2022-10-16T00:35:39;6.32;;;1.90;;
69703;SDS011;56967;43.538;-5.646;2022-10-16T00:38:04;4.32;;;2.00;;
69703;SDS011;56967;43.538;-5.646;2022-10-16T00:40:30;7.95;;;2.90;;
69703;SDS011;56967;43.538;-5.646;2022-10-16T00:42:56;11.55;;;3.63;;
69703;SDS011;56967;43.538;-5.646;2022-10-16T00:45:22;6.80;;;3.75;;
69703;SDS011;56967;43.538;-5.646;2022-10-16T00:47:48;6.40;;;3.90;;
69703;SDS011;56967;43.538;-5.646;2022-10-16T00:52:58;10.95;;;3.40;;
69703;SDS011;56967;43.538;-5.646;2022-10-16T00:55:27;8.68;;;3.45;;
69703;SDS011;56967;43.538;-5.646;2022-10-16T00:57:55;4.68;;;2.75;;
69703;SDS011;56967;43.538;-5.646;2022-10-16T01:00:23;6.35;;;3.28;;
69703;SDS011;56967;43.538;-5.646;2022-10-16T01:02:54;7.07;;;3.13;;
69703;SDS011;56967;43.538;-5.646;2022-10-16T01:05:22;6.60;;;3.15;;
69703;SDS011;56967;43.538;-5.646;2022-10-16T01:10:35;6.45;;;3.65;;
69703;SDS011;56967;43.538;-5.646;2022-10-16T01:13:08;7.43;;;3.60;;
69703;SDS011;56967;43.538;-5.646;2022-10-16T01:15:45;7.53;;;3.17;;
69703;SDS011;56967;43.538;-5.646;2022-10-16T01:21:12;7.25;;;3.13;;
69703;SDS011;56967;43.538;-5.646;2022-10-16T01:24:01;9.85;;;3.50;;
69703;SDS011;56967;43.538;-5.646;2022-10-16T01:32:03;7.75;;;3.10;;
69703;SDS011;56967;43.538;-5.646;2022-10-16T01:34:51;5.75;;;3.10;;
69703;SDS011;56967;43.538;-5.646;2022-10-16T01:37:25;7.35;;;3.30;;
69703;SDS011;56967;43.538;-5.646;2022-10-16T01:39:58;9.60;;;3.50;;
69703;SDS011;56967;43.538;-5.646;2022-10-16T01:42:32;8.15;;;3.50;;
69703;SDS011;56967;43.538;-5.646;2022-10-16T01:45:01;6.43;;;3.35;;
69703;SDS011;56967;43.538;-5.646;2022-10-16T01:47:29;9.48;;;3.70;;
69703;SDS011;56967;43.538;-5.646;2022-10-16T01:49:56;7.68;;;3.88;;
69703;SDS011;56967;43.538;-5.646;2022-10-16T01:52:24;7.47;;;3.65;;
69703;SDS011;56967;43.538;-5.646;2022-10-16T01:54:52;10.45;;;3.83;;
69703;SDS011;56967;43.538;-5.646;2022-10-16T01:57:20;7.47;;;3.55;;
69703;SDS011;56967;43.538;-5.646;2022-10-16T01:59:48;6.95;;;3.53;;
69703;SDS011;56967;43.538;-5.646;2022-10-16T02:02:17;9.70;;;3.85;;
69703;SDS011;56967;43.538;-5.646;2022-10-16T02:04:46;6.72;;;4.38;;
69703;SDS011;56967;43.538;-5.646;2022-10-16T02:07:14;5.65;;;3.55;;
69703;SDS011;56967;43.538;-5.646;2022-10-16T02:09:41;7.50;;;3.80;;
69703;SDS011;56967;43.538;-5.646;2022-10-16T02:12:22;7.28;;;3.40;;
69703;SDS011;56967;43.538;-5.646;2022-10-16T02:14:52;11.35;;;3.97;;
69703;SDS011;56967;43.538;-5.646;2022-10-16T02:17:18;8.38;;;3.63;;
69703;SDS011;56967;43.538;-5.646;2022-10-16T02:19:44;9.35;;;4.00;;
69703;SDS011;56967;43.538;-5.646;2022-10-16T02:22:18;7.80;;;4.05;;
69703;SDS011;56967;43.538;-5.646;2022-10-16T02:24:53;6.13;;;3.63;;
69703;SDS011;56967;43.538;-5.646;2022-10-16T02:30:11;7.60;;;3.70;;
69703;SDS011;56967;43.538;-5.646;2022-10-16T02:32:46;7.22;;;3.63;;
69703;SDS011;56967;43.538;-5.646;2022-10-16T02:35:15;7.93;;;4.20;;
69703;SDS011;56967;43.538;-5.646;2022-10-16T02:37:43;6.95;;;3.97;;
69703;SDS011;56967;43.538;-5.646;2022-10-16T02:40:11;8.45;;;4.30;;
69703;SDS011;56967;43.538;-5.646;2022-10-16T02:42:38;7.43;;;4.35;;
69703;SDS011;56967;43.538;-5.646;2022-10-16T02:45:05;10.32;;;4.00;;
69703;SDS011;56967;43.538;-5.646;2022-10-16T02:47:32;6.68;;;4.00;;
69703;SDS011;56967;43.538;-5.646;2022-10-16T02:49:57;8.65;;;3.53;;
69703;SDS011;56967;43.538;-5.646;2022-10-16T02:52:23;5.32;;;3.20;;
69703;SDS011;56967;43.538;-5.646;2022-10-16T02:54:48;5.63;;;3.50;;
69703;SDS011;56967;43.538;-5.646;2022-10-16T02:57:14;6.78;;;3.53;;
69703;SDS011;56967;43.538;-5.646;2022-10-16T02:59:39;6.28;;;3.38;;
69703;SDS011;56967;43.538;-5.646;2022-10-16T03:02:05;5.72;;;3.55;;
69703;SDS011;56967;43.538;-5.646;2022-10-16T03:04:30;6.95;;;3.30;;
69703;SDS011;56967;43.538;-5.646;2022-10-16T03:06:56;4.53;;;3.53;;
69703;SDS011;56967;43.538;-5.646;2022-10-16T03:09:22;6.15;;;3.35;;
69703;SDS011;56967;43.538;-5.646;2022-10-16T03:11:47;5.93;;;3.40;;
69703;SDS011;56967;43.538;-5.646;2022-10-16T03:14:13;9.40;;;3.58;;
69703;SDS011;56967;43.538;-5.646;2022-10-16T03:16:38;6.68;;;3.50;;
69703;SDS011;56967;43.538;-5.646;2022-10-16T03:19:04;7.18;;;3.42;;
69703;SDS011;56967;43.538;-5.646;2022-10-16T03:21:29;8.45;;;3.40;;
69703;SDS011;56967;43.538;-5.646;2022-10-16T03:23:55;6.72;;;3.65;;
69703;SDS011;56967;43.538;-5.646;2022-10-16T03:26:21;8.60;;;3.70;;
69703;SDS011;56967;43.538;-5.646;2022-10-16T03:28:46;4.28;;;3.35;;
69703;SDS011;56967;43.538;-5.646;2022-10-16T03:31:12;4.28;;;3.17;;
69703;SDS011;56967;43.538;-5.646;2022-10-16T03:33:37;4.22;;;3.03;;
69703;SDS011;56967;43.538;-5.646;2022-10-16T03:36:03;5.88;;;3.50;;
69703;SDS011;56967;43.538;-5.646;2022-10-16T03:38:29;4.85;;;3.10;;
69703;SDS011;56967;43.538;-5.646;2022-10-16T03:40:54;6.47;;;3.70;;
69703;SDS011;56967;43.538;-5.646;2022-10-16T03:43:20;6.88;;;3.67;;
69703;SDS011;56967;43.538;-5.646;2022-10-16T03:45:45;4.57;;;3.58;;
69703;SDS011;56967;43.538;-5.646;2022-10-16T03:48:11;7.78;;;3.67;;
69703;SDS011;56967;43.538;-5.646;2022-10-16T03:50:37;6.72;;;3.95;;
69703;SDS011;56967;43.538;-5.646;2022-10-16T03:53:02;6.70;;;3.70;;
69703;SDS011;56967;43.538;-5.646;2022-10-16T03:55:28;6.45;;;4.35;;
69703;SDS011;56967;43.538;-5.646;2022-10-16T03:57:54;8.02;;;4.53;;
69703;SDS011;56967;43.538;-5.646;2022-10-16T04:00:19;6.40;;;3.95;;
69703;SDS011;56967;43.538;-5.646;2022-10-16T04:02:45;5.28;;;3.53;;
69703;SDS011;56967;43.538;-5.646;2022-10-16T04:05:10;7.50;;;3.63;;
69703;SDS011;56967;43.538;-5.646;2022-10-16T04:07:39;6.13;;;3.55;;
69703;SDS011;56967;43.538;-5.646;2022-10-16T04:10:05;6.10;;;3.45;;
69703;SDS011;56967;43.538;-5.646;2022-10-16T04:12:31;5.70;;;3.58;;
69703;SDS011;56967;43.538;-5.646;2022-10-16T04:14:56;5.70;;;3.67;;
69703;SDS011;56967;43.538;-5.646;2022-10-16T04:17:22;5.15;;;3.80;;
69703;SDS011;56967;43.538;-5.646;2022-10-16T04:19:47;5.22;;;3.92;;
69703;SDS011;56967;43.538;-5.646;2022-10-16T04:22:13;7.07;;;3.40;;
69703;SDS011;56967;43.538;-5.646;2022-10-16T04:24:42;6.32;;;3.58;;
69703;SDS011;56967;43.538;-5.646;2022-10-16T04:27:07;5.65;;;3.45;;
69703;SDS011;56967;43.538;-5.646;2022-10-16T04:29:33;8.38;;;3.75;;
69703;SDS011;56967;43.538;-5.646;2022-10-16T04:31:58;6.18;;;4.38;;
69703;SDS011;56967;43.538;-5.646;2022-10-16T04:34:24;7.80;;;3.75;;
69703;SDS011;56967;43.538;-5.646;2022-10-16T04:36:50;5.65;;;3.95;;
69703;SDS011;56967;43.538;-5.646;2022-10-16T04:39:16;7.05;;;3.53;;
69703;SDS011;56967;43.538;-5.646;2022-10-16T04:41:43;5.93;;;3.53;;
69703;SDS011;56967;43.538;-5.646;2022-10-16T04:44:09;4.72;;;3.55;;
69703;SDS011;56967;43.538;-5.646;2022-10-16T04:46:34;4.95;;;3.60;;
69703;SDS011;56967;43.538;-5.646;2022-10-16T04:49:00;7.28;;;4.00;;
69703;SDS011;56967;43.538;-5.646;2022-10-16T04:51:26;5.63;;;3.53;;
69703;SDS011;56967;43.538;-5.646;2022-10-16T04:53:52;6.25;;;3.50;;
69703;SDS011;56967;43.538;-5.646;2022-10-16T04:56:19;4.53;;;3.35;;
69703;SDS011;56967;43.538;-5.646;2022-10-16T04:58:45;9.20;;;3.72;;
69703;SDS011;56967;43.538;-5.646;2022-10-16T05:01:11;10.38;;;4.80;;
69703;SDS011;56967;43.538;-5.646;2022-10-16T05:03:36;6.88;;;4.30;;
69703;SDS011;56967;43.538;-5.646;2022-10-16T05:06:04;5.70;;;3.70;;
69703;SDS011;56967;43.538;-5.646;2022-10-16T05:08:30;6.38;;;3.67;;
69703;SDS011;56967;43.538;-5.646;2022-10-16T05:10:56;4.35;;;3.30;;
69703;SDS011;56967;43.538;-5.646;2022-10-16T05:13:21;4.25;;;3.30;;
69703;SDS011;56967;43.538;-5.646;2022-10-16T05:15:48;4.15;;;3.50;;
69703;SDS011;56967;43.538;-5.646;2022-10-16T05:18:14;7.53;;;4.10;;
69703;SDS011;56967;43.538;-5.646;2022-10-16T05:20:40;7.13;;;4.63;;
69703;SDS011;56967;43.538;-5.646;2022-10-16T05:23:07;9.77;;;4.82;;
69703;SDS011;56967;43.538;-5.646;2022-10-16T05:25:32;5.20;;;3.72;;
69703;SDS011;56967;43.538;-5.646;2022-10-16T05:27:58;5.55;;;3.58;;
69703;SDS011;56967;43.538;-5.646;2022-10-16T05:30:23;7.60;;;4.50;;
69703;SDS011;56967;43.538;-5.646;2022-10-16T05:32:49;8.40;;;4.60;;
69703;SDS011;56967;43.538;-5.646;2022-10-16T05:35:16;7.90;;;4.40;;
69703;SDS011;56967;43.538;-5.646;2022-10-16T05:37:43;5.95;;;4.00;;
69703;SDS011;56967;43.538;-5.646;2022-10-16T05:40:09;6.88;;;3.88;;
69703;SDS011;56967;43.538;-5.646;2022-10-16T05:42:35;8.23;;;4.78;;
69703;SDS011;56967;43.538;-5.646;2022-10-16T05:45:00;6.18;;;3.97;;
69703;SDS011;56967;43.538;-5.646;2022-10-16T05:47:26;8.60;;;3.92;;
69703;SDS011;56967;43.538;-5.646;2022-10-16T05:49:52;6.88;;;3.92;;
69703;SDS011;56967;43.538;-5.646;2022-10-16T05:52:18;4.70;;;3.78;;
69703;SDS011;56967;43.538;-5.646;2022-10-16T05:54:43;7.10;;;3.88;;
69703;SDS011;56967;43.538;-5.646;2022-10-16T05:57:09;4.57;;;3.20;;
69703;SDS011;56967;43.538;-5.646;2022-10-16T05:59:35;6.13;;;3.70;;
69703;SDS011;56967;43.538;-5.646;2022-10-16T06:02:00;6.05;;;4.50;;
69703;SDS011;56967;43.538;-5.646;2022-10-16T06:04:26;5.07;;;4.05;;
69703;SDS011;56967;43.538;-5.646;2022-10-16T06:06:51;7.38;;;4.25;;
69703;SDS011;56967;43.538;-5.646;2022-10-16T06:09:17;6.10;;;3.97;;
69703;SDS011;56967;43.538;-5.646;2022-10-16T06:11:42;6.80;;;3.85;;
69703;SDS011;56967;43.538;-5.646;2022-10-16T06:14:08;6.30;;;3.67;;
69703;SDS011;56967;43.538;-5.646;2022-10-16T06:16:35;6.05;;;3.90;;
69703;SDS011;56967;43.538;-5.646;2022-10-16T06:19:02;7.20;;;3.83;;
69703;SDS011;56967;43.538;-5.646;2022-10-16T06:21:31;5.47;;;3.60;;
69703;SDS011;56967;43.538;-5.646;2022-10-16T06:23:57;5.65;;;3.92;;
69703;SDS011;56967;43.538;-5.646;2022-10-16T06:26:24;7.15;;;4.15;;
69703;SDS011;56967;43.538;-5.646;2022-10-16T06:28:51;5.35;;;3.88;;
69703;SDS011;56967;43.538;-5.646;2022-10-16T06:31:19;8.85;;;3.67;;
69703;SDS011;56967;43.538;-5.646;2022-10-16T06:33:45;5.50;;;3.78;;
69703;SDS011;56967;43.538;-5.646;2022-10-16T06:36:15;6.18;;;3.67;;
69703;SDS011;56967;43.538;-5.646;2022-10-16T06:38:42;4.10;;;3.30;;
69703;SDS011;56967;43.538;-5.646;2022-10-16T06:41:09;5.32;;;3.72;;
69703;SDS011;56967;43.538;-5.646;2022-10-16T06:43:37;6.07;;;3.58;;
69703;SDS011;56967;43.538;-5.646;2022-10-16T06:46:03;7.18;;;4.00;;
69703;SDS011;56967;43.538;-5.646;2022-10-16T06:48:30;10.75;;;4.63;;
69703;SDS011;56967;43.538;-5.646;2022-10-16T06:51:06;5.35;;;3.17;;
69703;SDS011;56967;43.538;-5.646;2022-10-16T06:53:36;4.80;;;3.50;;
69703;SDS011;56967;43.538;-5.646;2022-10-16T06:56:09;5.35;;;3.40;;
69703;SDS011;56967;43.538;-5.646;2022-10-16T06:58:36;5.35;;;3.40;;
69703;SDS011;56967;43.538;-5.646;2022-10-16T07:01:02;7.45;;;3.28;;
69703;SDS011;56967;43.538;-5.646;2022-10-16T07:03:28;4.70;;;3.30;;
69703;SDS011;56967;43.538;-5.646;2022-10-16T07:05:54;8.88;;;3.22;;
69703;SDS011;56967;43.538;-5.646;2022-10-16T07:08:19;4.55;;;3.08;;
69703;SDS011;56967;43.538;-5.646;2022-10-16T07:10:45;4.82;;;3.22;;
69703;SDS011;56967;43.538;-5.646;2022-10-16T07:13:11;5.03;;;3.00;;
69703;SDS011;56967;43.538;-5.646;2022-10-16T07:15:38;3.72;;;2.97;;
69703;SDS011;56967;43.538;-5.646;2022-10-16T07:18:04;3.47;;;2.35;;
69703;SDS011;56967;43.538;-5.646;2022-10-16T07:20:29;4.82;;;2.90;;
69703;SDS011;56967;43.538;-5.646;2022-10-16T07:22:55;4.57;;;2.90;;
69703;SDS011;56967;43.538;-5.646;2022-10-16T07:25:20;4.60;;;3.03;;
69703;SDS011;56967;43.538;-5.646;2022-10-16T07:27:46;7.20;;;3.63;;
69703;SDS011;56967;43.538;-5.646;2022-10-16T07:30:11;6.20;;;2.95;;
69703;SDS011;56967;43.538;-5.646;2022-10-16T07:32:37;6.45;;;2.70;;
69703;SDS011;56967;43.538;-5.646;2022-10-16T07:35:03;3.92;;;2.42;;
69703;SDS011;56967;43.538;-5.646;2022-10-16T07:37:28;5.93;;;2.75;;
69703;SDS011;56967;43.538;-5.646;2022-10-16T07:39:54;5.55;;;3.08;;
69703;SDS011;56967;43.538;-5.646;2022-10-16T07:42:19;8.32;;;2.90;;
69703;SDS011;56967;43.538;-5.646;2022-10-16T07:44:45;3.40;;;2.63;;
69703;SDS011;56967;43.538;-5.646;2022-10-16T07:47:11;6.43;;;2.92;;
69703;SDS011;56967;43.538;-5.646;2022-10-16T07:49:36;4.85;;;2.67;;
69703;SDS011;56967;43.538;-5.646;2022-10-16T07:52:04;3.92;;;3.00;;
69703;SDS011;56967;43.538;-5.646;2022-10-16T07:54:29;4.57;;;3.30;;
69703;SDS011;56967;43.538;-5.646;2022-10-16T07:56:55;4.57;;;3.10;;
69703;SDS011;56967;43.538;-5.646;2022-10-16T07:59:23;5.85;;;3.28;;
69703;SDS011;56967;43.538;-5.646;2022-10-16T08:01:49;4.82;;;3.70;;
69703;SDS011;56967;43.538;-5.646;2022-10-16T08:04:15;6.18;;;3.33;;
69703;SDS011;56967;43.538;-5.646;2022-10-16T08:06:41;4.57;;;2.60;;
69703;SDS011;56967;43.538;-5.646;2022-10-16T08:09:06;5.57;;;3.50;;
69703;SDS011;56967;43.538;-5.646;2022-10-16T08:11:33;4.25;;;2.72;;
69703;SDS011;56967;43.538;-5.646;2022-10-16T08:13:58;5.28;;;3.47;;
69703;SDS011;56967;43.538;-5.646;2022-10-16T08:16:24;6.30;;;3.47;;
69703;SDS011;56967;43.538;-5.646;2022-10-16T08:18:50;6.50;;;3.60;;
69703;SDS011;56967;43.538;-5.646;2022-10-16T08:21:19;10.98;;;4.20;;
69703;SDS011;56967;43.538;-5.646;2022-10-16T08:23:49;6.82;;;3.97;;
69703;SDS011;56967;43.538;-5.646;2022-10-16T08:26:15;6.38;;;4.43;;
69703;SDS011;56967;43.538;-5.646;2022-10-16T08:28:41;7.18;;;3.90;;
69703;SDS011;56967;43.538;-5.646;2022-10-16T08:31:07;8.73;;;4.50;;
69703;SDS011;56967;43.538;-5.646;2022-10-16T08:33:40;9.30;;;4.53;;
69703;SDS011;56967;43.538;-5.646;2022-10-16T08:36:08;10.65;;;5.30;;
69703;SDS011;56967;43.538;-5.646;2022-10-16T08:38:35;8.82;;;5.18;;
69703;SDS011;56967;43.538;-5.646;2022-10-16T08:41:03;6.03;;;4.45;;
69703;SDS011;56967;43.538;-5.646;2022-10-16T08:46:18;6.57;;;4.60;;
69703;SDS011;56967;43.538;-5.646;2022-10-16T08:48:53;5.85;;;4.38;;
69703;SDS011;56967;43.538;-5.646;2022-10-16T08:51:22;11.18;;;4.72;;
69703;SDS011;56967;43.538;-5.646;2022-10-16T08:56:26;7.03;;;4.50;;
69703;SDS011;56967;43.538;-5.646;2022-10-16T08:58:53;7.55;;;4.65;;
69703;SDS011;56967;43.538;-5.646;2022-10-16T09:01:21;6.30;;;4.57;;
69703;SDS011;56967;43.538;-5.646;2022-10-16T09:12:19;7.75;;;4.70;;
69703;SDS011;56967;43.538;-5.646;2022-10-16T09:15:01;7.47;;;4.63;;
69703;SDS011;56967;43.538;-5.646;2022-10-16T09:18:12;6.05;;;4.07;;
69703;SDS011;56967;43.538;-5.646;2022-10-16T09:20:31;7.03;;;4.95;;
69703;SDS011;56967;43.538;-5.646;2022-10-16T09:25:28;22.42;;;7.30;;
69703;SDS011;56967;43.538;-5.646;2022-10-16T09:27:54;30.77;;;8.88;;
69703;SDS011;56967;43.538;-5.646;2022-10-16T09:30:23;22.63;;;6.75;;
69703;SDS011;56967;43.538;-5.646;2022-10-16T09:32:54;25.17;;;7.60;;
69703;SDS011;56967;43.538;-5.646;2022-10-16T09:35:25;53.60;;;14.23;;
69703;SDS011;56967;43.538;-5.646;2022-10-16T09:37:59;45.13;;;14.10;;
69703;SDS011;56967;43.538;-5.646;2022-10-16T09:40:29;60.78;;;13.82;;
69703;SDS011;56967;43.538;-5.646;2022-10-16T09:42:57;35.15;;;10.60;;
69703;SDS011;56967;43.538;-5.646;2022-10-16T09:45:28;39.38;;;9.55;;
69703;SDS011;56967;43.538;-5.646;2022-10-16T09:47:54;25.98;;;8.77;;
69703;SDS011;56967;43.538;-5.646;2022-10-16T09:50:24;24.55;;;7.90;;
69703;SDS011;56967;43.538;-5.646;2022-10-16T09:53:05;22.17;;;8.07;;
69703;SDS011;56967;43.538;-5.646;2022-10-16T09:55:35;27.42;;;7.75;;
69703;SDS011;56967;43.538;-5.646;2022-10-16T09:58:01;28.55;;;9.02;;
69703;SDS011;56967;43.538;-5.646;2022-10-16T10:00:27;60.97;;;13.52;;
69703;SDS011;56967;43.538;-5.646;2022-10-16T10:02:53;82.85;;;19.33;;
69703;SDS011;56967;43.538;-5.646;2022-10-16T10:05:24;85.03;;;19.80;;
69703;SDS011;56967;43.538;-5.646;2022-10-16T10:08:01;61.88;;;17.45;;
69703;SDS011;56967;43.538;-5.646;2022-10-16T10:10:32;61.33;;;16.90;;
69703;SDS011;56967;43.538;-5.646;2022-10-16T10:12:59;65.32;;;17.23;;
69703;SDS011;56967;43.538;-5.646;2022-10-16T10:15:25;86.47;;;19.50;;
69703;SDS011;56967;43.538;-5.646;2022-10-16T10:17:56;79.82;;;18.05;;
69703;SDS011;56967;43.538;-5.646;2022-10-16T10:20:24;73.88;;;17.65;;
69703;SDS011;56967;43.538;-5.646;2022-10-16T10:22:53;62.67;;;16.23;;
69703;SDS011;56967;43.538;-5.646;2022-10-16T10:39:04;19.75;;;6.78;;
69703;SDS011;56967;43.538;-5.646;2022-10-16T10:44:25;32.20;;;9.68;;
69703;SDS011;56967;43.538;-5.646;2022-10-16T10:47:29;47.45;;;12.52;;
69703;SDS011;56967;43.538;-5.646;2022-10-16T10:55:52;29.10;;;8.55;;
69703;SDS011;56967;43.538;-5.646;2022-10-16T11:01:08;19.30;;;7.50;;
69703;SDS011;56967;43.538;-5.646;2022-10-16T11:06:29;38.83;;;13.68;;
69703;SDS011;56967;43.538;-5.646;2022-10-16T11:11:38;50.20;;;13.77;;
69703;SDS011;56967;43.538;-5.646;2022-10-16T11:14:54;43.53;;;12.18;;
69703;SDS011;56967;43.538;-5.646;2022-10-16T11:20:18;46.92;;;14.25;;
69703;SDS011;56967;43.538;-5.646;2022-10-16T11:22:52;62.35;;;15.38;;
69703;SDS011;56967;43.538;-5.646;2022-10-16T11:25:22;65.50;;;12.88;;
69703;SDS011;56967;43.538;-5.646;2022-10-16T11:28:00;49.63;;;12.50;;
69703;SDS011;56967;43.538;-5.646;2022-10-16T11:30:29;47.03;;;12.23;;
69703;SDS011;56967;43.538;-5.646;2022-10-16T11:44:14;47.47;;;10.93;;
69703;SDS011;56967;43.538;-5.646;2022-10-16T11:46:43;60.72;;;14.05;;
69703;SDS011;56967;43.538;-5.646;2022-10-16T11:49:24;64.13;;;14.10;;
69703;SDS011;56967;43.538;-5.646;2022-10-16T11:51:56;88.28;;;16.10;;
69703;SDS011;56967;43.538;-5.646;2022-10-16T11:54:39;106.10;;;21.77;;
69703;SDS011;56967;43.538;-5.646;2022-10-16T11:57:16;56.85;;;13.02;;
69703;SDS011;56967;43.538;-5.646;2022-10-16T12:00:28;62.33;;;13.23;;
69703;SDS011;56967;43.538;-5.646;2022-10-16T12:05:28;54.30;;;11.55;;
69703;SDS011;56967;43.538;-5.646;2022-10-16T12:08:18;54.05;;;13.02;;
69703;SDS011;56967;43.538;-5.646;2022-10-16T12:10:50;52.63;;;13.18;;
69703;SDS011;56967;43.538;-5.646;2022-10-16T12:13:33;70.70;;;15.70;;
69703;SDS011;56967;43.538;-5.646;2022-10-16T12:18:33;64.95;;;14.98;;
69703;SDS011;56967;43.538;-5.646;2022-10-16T12:20:59;75.47;;;16.23;;
69703;SDS011;56967;43.538;-5.646;2022-10-16T12:23:30;72.10;;;15.98;;
69703;SDS011;56967;43.538;-5.646;2022-10-16T12:25:58;94.18;;;19.05;;
69703;SDS011;56967;43.538;-5.646;2022-10-16T12:28:33;59.50;;;14.52;;
69703;SDS011;56967;43.538;-5.646;2022-10-16T12:31:00;56.30;;;14.23;;
69703;SDS011;56967;43.538;-5.646;2022-10-16T12:33:29;45.40;;;13.50;;
69703;SDS011;56967;43.538;-5.646;2022-10-16T12:36:00;27.85;;;10.50;;
69703;SDS011;56967;43.538;-5.646;2022-10-16T12:38:35;61.63;;;15.45;;
69703;SDS011;56967;43.538;-5.646;2022-10-16T12:41:04;67.10;;;18.10;;
69703;SDS011;56967;43.538;-5.646;2022-10-16T12:43:37;58.70;;;15.88;;
69703;SDS011;56967;43.538;-5.646;2022-10-16T12:48:35;58.10;;;15.32;;
69703;SDS011;56967;43.538;-5.646;2022-10-16T12:54:02;61.53;;;15.18;;
69703;SDS011;56967;43.538;-5.646;2022-10-16T13:02:25;59.22;;;15.20;;
69703;SDS011;56967;43.538;-5.646;2022-10-16T13:11:01;73.78;;;14.20;;
69703;SDS011;56967;43.538;-5.646;2022-10-16T13:21:51;38.05;;;8.57;;
69703;SDS011;56967;43.538;-5.646;2022-10-16T13:30:15;37.67;;;9.60;;
69703;SDS011;56967;43.538;-5.646;2022-10-16T13:32:43;25.90;;;8.48;;
69703;SDS011;56967;43.538;-5.646;2022-10-16T13:35:18;15.85;;;6.50;;
69703;SDS011;56967;43.538;-5.646;2022-10-16T13:37:48;41.90;;;10.40;;
69703;SDS011;56967;43.538;-5.646;2022-10-16T13:40:23;42.28;;;10.10;;
69703;SDS011;56967;43.538;-5.646;2022-10-16T13:42:50;35.97;;;8.90;;
69703;SDS011;56967;43.538;-5.646;2022-10-16T13:45:21;21.70;;;6.22;;
69703;SDS011;56967;43.538;-5.646;2022-10-16T13:47:48;17.83;;;5.25;;
69703;SDS011;56967;43.538;-5.646;2022-10-16T13:50:18;47.25;;;12.23;;
69703;SDS011;56967;43.538;-5.646;2022-10-16T13:52:44;40.47;;;10.63;;
69703;SDS011;56967;43.538;-5.646;2022-10-16T13:55:12;36.42;;;8.38;;
69703;SDS011;56967;43.538;-5.646;2022-10-16T13:57:40;34.53;;;8.63;;
69703;SDS011;56967;43.538;-5.646;2022-10-16T14:00:25;38.15;;;8.73;;
69703;SDS011;56967;43.538;-5.646;2022-10-16T14:03:11;28.95;;;8.20;;
69703;SDS011;56967;43.538;-5.646;2022-10-16T14:05:47;28.80;;;7.18;;
69703;SDS011;56967;43.538;-5.646;2022-10-16T14:08:21;26.50;;;7.53;;
69703;SDS011;56967;43.538;-5.646;2022-10-16T14:10:49;22.75;;;6.78;;
69703;SDS011;56967;43.538;-5.646;2022-10-16T14:13:18;15.80;;;4.97;;
69703;SDS011;56967;43.538;-5.646;2022-10-16T14:15:49;16.80;;;5.25;;
69703;SDS011;56967;43.538;-5.646;2022-10-16T14:18:18;13.02;;;5.10;;
69703;SDS011;56967;43.538;-5.646;2022-10-16T14:20:50;11.15;;;4.05;;
69703;SDS011;56967;43.538;-5.646;2022-10-16T14:23:20;12.45;;;4.22;;
69703;SDS011;56967;43.538;-5.646;2022-10-16T14:26:12;11.43;;;4.05;;
69703;SDS011;56967;43.538;-5.646;2022-10-16T14:28:39;11.07;;;3.63;;
69703;SDS011;56967;43.538;-5.646;2022-10-16T14:33:58;22.67;;;6.32;;
69703;SDS011;56967;43.538;-5.646;2022-10-16T14:36:24;27.25;;;7.35;;
69703;SDS011;56967;43.538;-5.646;2022-10-16T14:39:02;11.60;;;4.13;;
69703;SDS011;56967;43.538;-5.646;2022-10-16T14:41:41;16.80;;;5.22;;
69703;SDS011;56967;43.538;-5.646;2022-10-16T14:44:10;10.10;;;4.40;;
69703;SDS011;56967;43.538;-5.646;2022-10-16T14:46:37;19.63;;;5.50;;
69703;SDS011;56967;43.538;-5.646;2022-10-16T14:49:12;21.05;;;5.55;;
69703;SDS011;56967;43.538;-5.646;2022-10-16T14:51:44;16.83;;;5.60;;
69703;SDS011;56967;43.538;-5.646;2022-10-16T14:54:11;11.63;;;4.05;;
69703;SDS011;56967;43.538;-5.646;2022-10-16T14:56:54;33.47;;;7.05;;
69703;SDS011;56967;43.538;-5.646;2022-10-16T15:02:09;55.95;;;14.35;;
69703;SDS011;56967;43.538;-5.646;2022-10-16T15:04:41;175.85;;;32.17;;
69703;SDS011;56967;43.538;-5.646;2022-10-16T15:07:07;207.32;;;37.20;;
69703;SDS011;56967;43.538;-5.646;2022-10-16T15:09:33;155.15;;;31.90;;
69703;SDS011;56967;43.538;-5.646;2022-10-16T15:11:58;119.50;;;27.00;;
69703;SDS011;56967;43.538;-5.646;2022-10-16T15:14:24;97.57;;;22.35;;
69703;SDS011;56967;43.538;-5.646;2022-10-16T15:16:49;118.55;;;26.38;;
69703;SDS011;56967;43.538;-5.646;2022-10-16T15:19:15;120.47;;;26.45;;
69703;SDS011;56967;43.538;-5.646;2022-10-16T15:21:40;116.38;;;26.70;;
69703;SDS011;56967;43.538;-5.646;2022-10-16T15:24:08;119.75;;;27.30;;
69703;SDS011;56967;43.538;-5.646;2022-10-16T15:26:36;132.93;;;28.83;;
69703;SDS011;56967;43.538;-5.646;2022-10-16T15:29:05;110.45;;;26.27;;
69703;SDS011;56967;43.538;-5.646;2022-10-16T15:31:31;144.27;;;32.20;;
69703;SDS011;56967;43.538;-5.646;2022-10-16T15:33:59;125.03;;;27.90;;
69703;SDS011;56967;43.538;-5.646;2022-10-16T15:36:30;133.10;;;29.17;;
69703;SDS011;56967;43.538;-5.646;2022-10-16T15:39:06;166.15;;;33.60;;
69703;SDS011;56967;43.538;-5.646;2022-10-16T15:41:45;111.68;;;25.02;;
69703;SDS011;56967;43.538;-5.646;2022-10-16T15:44:19;176.27;;;34.95;;
69703;SDS011;56967;43.538;-5.646;2022-10-16T15:46:45;145.90;;;27.40;;
69703;SDS011;56967;43.538;-5.646;2022-10-16T15:49:15;129.65;;;29.60;;
69703;SDS011;56967;43.538;-5.646;2022-10-16T15:51:41;93.30;;;21.98;;
69703;SDS011;56967;43.538;-5.646;2022-10-16T15:54:07;73.68;;;16.33;;
69703;SDS011;56967;43.538;-5.646;2022-10-16T15:56:34;105.30;;;24.75;;
69703;SDS011;56967;43.538;-5.646;2022-10-16T15:59:04;112.50;;;27.35;;
69703;SDS011;56967;43.538;-5.646;2022-10-16T16:01:33;94.07;;;22.30;;
69703;SDS011;56967;43.538;-5.646;2022-10-16T16:03:59;49.92;;;13.90;;
69703;SDS011;56967;43.538;-5.646;2022-10-16T16:06:25;114.47;;;23.95;;
69703;SDS011;56967;43.538;-5.646;2022-10-16T16:08:52;85.30;;;21.85;;
69703;SDS011;56967;43.538;-5.646;2022-10-16T16:11:20;196.88;;;40.75;;
69703;SDS011;56967;43.538;-5.646;2022-10-16T16:13:48;252.45;;;46.53;;
69703;SDS011;56967;43.538;-5.646;2022-10-16T16:16:15;46.35;;;14.73;;
69703;SDS011;56967;43.538;-5.646;2022-10-16T16:18:42;136.95;;;28.40;;
69703;SDS011;56967;43.538;-5.646;2022-10-16T16:21:09;170.73;;;38.22;;
69703;SDS011;56967;43.538;-5.646;2022-10-16T16:23:37;183.32;;;38.63;;
69703;SDS011;56967;43.538;-5.646;2022-10-16T16:28:38;95.15;;;21.88;;
69703;SDS011;56967;43.538;-5.646;2022-10-16T16:31:08;95.55;;;23.38;;
69703;SDS011;56967;43.538;-5.646;2022-10-16T16:33:34;76.10;;;18.15;;
69703;SDS011;56967;43.538;-5.646;2022-10-16T16:36:01;171.55;;;36.25;;